createdAt,value
2022-12-09T07:18:17.480Z,117.30
2022-12-09T07:23:19.565Z,116.70
2022-12-09T07:28:21.574Z,136.10
2022-12-09T07:33:23.463Z,140.70
2022-12-09T07:38:27.030Z,136.90
2022-12-09T07:43:29.511Z,194.10
2022-12-09T07:48:31.307Z,142.10
2022-12-09T07:53:37.427Z,132.70
2022-12-09T07:58:39.103Z,119.20
2022-12-09T08:08:45.383Z,130.60
2022-12-09T08:13:47.549Z,160.60
2022-12-09T08:18:50.630Z,153.30
2022-12-09T08:23:52.970Z,154.90
2022-12-09T08:28:55.730Z,145.40
2022-12-09T08:33:57.819Z,131.10
2022-12-09T08:39:01.500Z,134.10
2022-12-09T08:44:14.440Z,129.40
2022-12-09T08:49:19.046Z,132.90
2022-12-09T08:54:21.585Z,128.50
2022-12-09T08:59:26.209Z,188.50
2022-12-09T09:04:33.862Z,188.50
2022-12-09T09:09:35.791Z,255.90
2022-12-09T09:14:38.407Z,234.40
2022-12-09T09:19:40.892Z,214.40
2022-12-09T09:24:43.001Z,213.90
2022-12-09T09:29:45.097Z,223.20
2022-12-09T09:34:50.656Z,213.40
2022-12-09T09:39:52.750Z,239.30
2022-12-09T09:44:55.636Z,224.40
2022-12-09T09:50:19.715Z,183.00
2022-12-09T09:55:47.602Z,195.40
2022-12-09T10:01:13.343Z,221.10
2022-12-09T10:06:36.419Z,188.70
2022-12-09T10:12:04.885Z,200.50
2022-12-09T10:17:22.104Z,201.40
2022-12-09T10:22:30.685Z,192.70
2022-12-09T10:27:56.919Z,199.60
2022-12-09T10:32:58.789Z,230.90
2022-12-09T10:38:09.878Z,235.30
2022-12-09T10:43:35.261Z,190.10
2022-12-09T10:48:53.313Z,178.90
2022-12-09T10:54:01.773Z,173.10
2022-12-09T10:59:24.826Z,173.60
2022-12-09T11:04:32.911Z,168.20
2022-12-09T11:09:40.599Z,169.00
2022-12-09T11:14:52.686Z,167.40
2022-12-09T11:20:24.414Z,166.90
2022-12-09T11:25:36.318Z,163.60
2022-12-09T11:36:36.823Z,140.90
2022-12-09T11:42:11.436Z,139.50
2022-12-09T11:48:13.469Z,131.70
2022-12-09T11:53:30.622Z,117.50
2022-12-09T11:58:50.159Z,114.30
2022-12-09T12:04:05.868Z,118.30
2022-12-09T12:09:16.954Z,120.50
2022-12-09T12:14:27.638Z,105.50
2022-12-09T12:19:35.824Z,111.80
2022-12-09T12:24:49.987Z,111.60
2022-12-09T12:30:17.423Z,86.50
2022-12-09T12:35:21.909Z,73.90
2022-12-09T12:40:56.465Z,75.70
2022-12-09T12:46:17.805Z,62.70
2022-12-09T12:51:34.211Z,56.90
2022-12-09T12:56:47.714Z,55.70
2022-12-09T13:02:09.456Z,46.50
2022-12-09T13:07:33.335Z,73.50
2022-12-09T13:13:01.502Z,101.20
2022-12-09T13:18:09.162Z,129.70
2022-12-09T13:23:29.134Z,95.60
2022-12-09T13:28:39.071Z,85.80
2022-12-09T13:34:02.975Z,82.00
2022-12-09T13:39:05.218Z,134.90
2022-12-09T13:44:11.139Z,130.60
2022-12-09T13:49:26.814Z,87.10
2022-12-09T13:54:29.496Z,58.50
2022-12-09T13:59:52.080Z,64.40
2022-12-09T14:05:07.731Z,59.10
2022-12-09T14:10:43.737Z,87.70
2022-12-09T14:15:47.983Z,96.60
2022-12-09T14:21:18.716Z,90.50
2022-12-09T14:26:40.369Z,79.80
2022-12-09T14:31:55.479Z,86.50
2022-12-09T14:37:31.618Z,80.70
2022-12-09T14:42:51.600Z,68.40
2022-12-09T14:47:53.747Z,59.10
2022-12-09T14:53:03.195Z,54.50
2022-12-09T14:58:05.403Z,48.20
2022-12-09T15:03:44.947Z,37.10
2022-12-09T15:08:42.952Z,49.10
2022-12-09T15:13:47.974Z,46.00
2022-12-09T15:18:51.140Z,39.40
2022-12-09T15:23:53.152Z,36.20
2022-12-09T15:28:56.613Z,51.90
2022-12-09T15:34:07.989Z,42.90
2022-12-09T15:39:13.354Z,42.30
2022-12-09T15:44:19.365Z,36.80
2022-12-09T15:49:28.701Z,45.40
2022-12-09T15:54:36.394Z,33.20
2022-12-09T15:59:55.332Z,41.00
2022-12-09T16:05:00.480Z,39.00
2022-12-09T16:10:07.803Z,41.20
2022-12-09T16:15:12.665Z,40.00
2022-12-09T16:20:37.702Z,46.10
2022-12-09T16:25:46.004Z,51.30
2022-12-09T16:30:47.797Z,52.90
2022-12-09T16:36:02.578Z,44.60
2022-12-09T16:41:08.290Z,59.90
2022-12-09T16:46:12.883Z,56.70
2022-12-09T16:51:17.725Z,59.20
2022-12-09T16:56:26.032Z,54.30
2022-12-09T17:01:35.184Z,46.10
2022-12-09T17:06:36.773Z,48.40
2022-12-09T17:11:38.432Z,46.40
2022-12-09T17:21:43.286Z,30.20
2022-12-09T17:26:44.899Z,32.40
2022-12-09T17:36:51.353Z,28.30
2022-12-09T17:46:55.485Z,20.80
2022-12-09T17:51:57.212Z,28.70
2022-12-09T18:02:03.438Z,35.20
2022-12-09T18:07:05.142Z,41.80
2022-12-09T18:12:07.548Z,42.20
2022-12-09T18:17:09.197Z,39.10
2022-12-09T18:22:10.944Z,47.00
2022-12-09T18:27:12.510Z,49.50
2022-12-09T18:32:14.079Z,50.50
2022-12-09T18:42:17.688Z,50.20
2022-12-09T18:47:19.327Z,46.40
2022-12-09T18:57:27.496Z,59.10
2022-12-09T19:02:32.121Z,52.10
2022-12-09T19:12:56.354Z,60.00
2022-12-09T19:17:56.868Z,66.00
2022-12-09T19:33:01.761Z,65.00
2022-12-09T19:43:04.944Z,60.90
2022-12-09T19:53:10.021Z,60.50
2022-12-09T19:58:11.638Z,71.60
2022-12-09T20:08:15.000Z,57.70
2022-12-09T20:13:18.196Z,61.80
2022-12-09T20:18:20.912Z,65.00
2022-12-09T20:23:22.538Z,66.00
2022-12-09T20:33:25.630Z,68.10
2022-12-09T20:43:30.363Z,69.70
2022-12-09T20:48:31.915Z,60.50
2022-12-09T20:53:36.277Z,67.30
2022-12-09T20:58:38.514Z,89.10
2022-12-09T21:03:41.080Z,81.60
2022-12-09T21:08:43.694Z,77.90
2022-12-09T21:13:47.563Z,71.50
2022-12-09T21:18:50.700Z,62.90
2022-12-09T21:23:54.367Z,61.20
2022-12-09T21:28:58.226Z,58.60
2022-12-09T21:34:03.351Z,62.50
2022-12-09T21:39:06.959Z,80.00
2022-12-09T21:44:12.966Z,83.10
2022-12-09T21:49:14.767Z,77.00
2022-12-09T21:54:17.334Z,68.50
2022-12-09T21:59:19.216Z,66.40
2022-12-09T22:04:20.760Z,74.50
2022-12-09T22:09:27.706Z,77.20
2022-12-09T22:14:30.267Z,58.10
2022-12-09T22:19:31.849Z,72.00
2022-12-09T22:29:35.494Z,54.70
2022-12-09T22:34:42.306Z,53.80
2022-12-09T22:39:45.244Z,48.90
2022-12-09T22:44:46.881Z,50.10
2022-12-09T22:54:50.271Z,55.80
2022-12-09T22:59:51.850Z,56.30
2022-12-09T23:04:53.452Z,45.60
2022-12-09T23:09:57.571Z,47.20
2022-12-09T23:14:59.152Z,38.60
2022-12-09T23:20:00.728Z,41.70
2022-12-09T23:30:06.077Z,43.20
2022-12-09T23:36:26.655Z,56.90
2022-12-09T23:41:28.780Z,58.60
2022-12-09T23:46:30.628Z,48.80
2022-12-09T23:51:34.457Z,46.80
2022-12-09T23:56:39.080Z,47.20
